Time,TemperatureF,DewpointF,PressureIn,WindDirection,WindDirectionDegrees,WindSpeedMPH,WindSpeedGustMPH,Humidity,HourlyPrecipIn,Conditions,Clouds,dailyrainin,SoftwareType,DateUTC
2013-04-23 00:00:00,45.7,25.3,30.35,East,90,0.0,0.0,44,0.00,,,0.00,meteohub,2013-04-23 04:00:00,
2013-04-23 00:01:00,45.7,25.3,30.36,East,90,0.0,0.0,44,0.00,,,0.00,meteohub,2013-04-23 04:01:00,
2013-04-23 00:02:00,45.7,25.3,30.35,East,90,0.0,0.0,44,0.00,,,0.00,meteohub,2013-04-23 04:02:00,
2013-04-23 00:07:00,45.7,25.3,30.36,East,90,0.0,0.0,44,0.00,,,0.00,meteohub,2013-04-23 04:07:00,
2013-04-23 00:12:00,45.3,24.4,30.36,East,90,0.0,0.0,43,0.00,,,0.00,meteohub,2013-04-23 04:12:00,
2013-04-23 00:17:00,45.1,24.3,30.36,East,90,0.0,0.0,43,0.00,,,0.00,meteohub,2013-04-23 04:17:00,
2013-04-23 00:22:00,44.8,23.9,30.36,East,90,0.0,0.0,43,0.00,,,0.00,meteohub,2013-04-23 04:22:00,
2013-04-23 00:27:00,44.6,23.9,30.36,East,90,0.0,0.0,43,0.00,,,0.00,meteohub,2013-04-23 04:27:00,
2013-04-23 00:32:00,44.4,23.7,30.36,East,90,0.0,0.0,43,0.00,,,0.00,meteohub,2013-04-23 04:32:00,
2013-04-23 00:37:00,44.2,24.1,30.36,East,90,0.0,0.0,44,0.00,,,0.00,meteohub,2013-04-23 04:37:00,
2013-04-23 00:42:00,44.1,23.9,30.36,East,90,0.0,0.0,44,0.00,,,0.00,meteohub,2013-04-23 04:42:00,
2013-04-23 00:47:00,43.9,23.7,30.36,East,90,0.0,0.0,44,0.00,,,0.00,meteohub,2013-04-23 04:47:00,
2013-04-23 00:52:00,43.9,23.7,30.36,East,90,0.0,0.0,44,0.00,,,0.00,meteohub,2013-04-23 04:52:00,
2013-04-23 00:58:00,43.9,24.3,30.36,East,90,0.0,0.0,45,0.00,,,0.00,meteohub,2013-04-23 04:58:00,
2013-04-23 01:03:00,43.9,24.3,30.36,East,90,0.0,0.0,45,0.00,,,0.00,meteohub,2013-04-23 05:03:00,
2013-04-23 01:08:00,43.9,24.3,30.35,East,90,0.0,0.0,45,0.00,,,0.00,meteohub,2013-04-23 05:08:00,
2013-04-23 01:13:00,43.7,24.1,30.36,East,90,0.0,0.0,45,0.00,,,0.00,meteohub,2013-04-23 05:13:00,
2013-04-23 01:18:00,43.5,23.9,30.36,East,90,0.0,0.0,45,0.00,,,0.00,meteohub,2013-04-23 05:18:00,
2013-04-23 01:23:00,43.3,23.7,30.36,East,90,0.0,0.0,45,0.00,,,0.00,meteohub,2013-04-23 05:23:00,
2013-04-23 01:28:00,43.3,23.7,30.36,East,90,0.0,0.0,45,0.00,,,0.00,meteohub,2013-04-23 05:28:00,
2013-04-23 01:33:00,43.3,24.3,30.35,East,90,0.0,0.0,46,0.00,,,0.00,meteohub,2013-04-23 05:33:00,
2013-04-23 01:38:00,43.3,24.3,30.35,East,90,0.0,0.0,46,0.00,,,0.00,meteohub,2013-04-23 05:38:00,
2013-04-23 01:43:00,43.2,24.1,30.35,East,90,0.0,0.0,46,0.00,,,0.00,meteohub,2013-04-23 05:43:00,
2013-04-23 01:48:00,43.2,24.1,30.35,East,90,0.0,0.0,46,0.00,,,0.00,meteohub,2013-04-23 05:48:00,
2013-04-23 01:53:00,43.0,23.9,30.35,East,90,0.0,0.0,46,0.00,,,0.00,meteohub,2013-04-23 05:53:00,
2013-04-23 01:58:00,42.8,23.7,30.35,East,90,0.0,0.0,46,0.00,,,0.00,meteohub,2013-04-23 05:58:00,
2013-04-23 02:03:00,42.8,23.7,30.35,East,90,0.0,0.0,46,0.00,,,0.00,meteohub,2013-04-23 06:03:00,
2013-04-23 02:08:00,42.6,23.5,30.35,East,90,0.0,0.0,46,0.00,,,0.00,meteohub,2013-04-23 06:08:00,
2013-04-23 02:13:00,42.6,23.5,30.35,East,90,0.0,0.0,46,0.00,,,0.00,meteohub,2013-04-23 06:13:00,
2013-04-23 02:19:00,42.3,23.4,30.35,East,90,0.0,0.0,46,0.00,,,0.00,meteohub,2013-04-23 06:19:00,
2013-04-23 02:24:00,42.3,23.4,30.35,East,90,0.0,0.0,46,0.00,,,0.00,meteohub,2013-04-23 06:24:00,
2013-04-23 02:29:00,42.1,23.2,30.35,East,90,0.0,0.0,46,0.00,,,0.00,meteohub,2013-04-23 06:29:00,
2013-04-23 02:34:00,42.3,23.9,30.35,East,90,0.0,0.0,47,0.00,,,0.00,meteohub,2013-04-23 06:34:00,
2013-04-23 02:39:00,42.3,23.9,30.34,East,90,0.0,0.0,47,0.00,,,0.00,meteohub,2013-04-23 06:39:00,
2013-04-23 02:44:00,42.1,23.7,30.35,East,90,0.0,0.0,47,0.00,,,0.00,meteohub,2013-04-23 06:44:00,
2013-04-23 02:49:00,41.9,23.5,30.35,East,90,0.0,0.0,47,0.00,,,0.00,meteohub,2013-04-23 06:49:00,
2013-04-23 02:54:00,41.7,23.4,30.35,East,90,0.0,0.0,47,0.00,,,0.00,meteohub,2013-04-23 06:54:00,
2013-04-23 02:59:00,41.9,23.9,30.35,East,90,0.0,0.0,48,0.00,,,0.00,meteohub,2013-04-23 06:59:00,
2013-04-23 03:04:00,41.7,23.9,30.35,East,90,0.0,0.0,48,0.00,,,0.00,meteohub,2013-04-23 07:04:00,
2013-04-23 03:09:00,41.5,23.7,30.35,East,90,0.0,0.0,48,0.00,,,0.00,meteohub,2013-04-23 07:09:00,
2013-04-23 03:14:00,41.5,23.7,30.34,East,90,0.0,0.0,48,0.00,,,0.00,meteohub,2013-04-23 07:14:00,
2013-04-23 03:19:00,41.4,23.5,30.34,East,90,0.0,0.0,48,0.00,,,0.00,meteohub,2013-04-23 07:19:00,
2013-04-23 03:24:00,41.2,23.4,30.34,East,90,0.0,0.0,48,0.00,,,0.00,meteohub,2013-04-23 07:24:00,
2013-04-23 03:30:00,41.0,23.2,30.34,East,90,0.0,0.0,48,0.00,,,0.00,meteohub,2013-04-23 07:30:00,
2013-04-23 03:35:00,41.0,23.2,30.34,East,90,0.0,0.0,48,0.00,,,0.00,meteohub,2013-04-23 07:35:00,
2013-04-23 03:40:00,40.8,23.0,30.34,East,90,0.0,0.0,48,0.00,,,0.00,meteohub,2013-04-23 07:40:00,
2013-04-23 03:45:00,40.8,23.0,30.34,East,90,0.0,0.0,48,0.00,,,0.00,meteohub,2013-04-23 07:45:00,
2013-04-23 03:50:00,40.5,22.6,30.34,East,90,0.0,0.0,48,0.00,,,0.00,meteohub,2013-04-23 07:50:00,
2013-04-23 03:55:00,40.5,22.6,30.35,East,90,0.0,0.0,48,0.00,,,0.00,meteohub,2013-04-23 07:55:00,
2013-04-23 04:00:00,40.5,22.6,30.34,East,90,0.0,0.0,48,0.00,,,0.00,meteohub,2013-04-23 08:00:00,
2013-04-23 04:05:00,40.5,22.6,30.34,East,90,0.0,0.0,48,0.00,,,0.00,meteohub,2013-04-23 08:05:00,
2013-04-23 04:10:00,40.3,22.5,30.34,East,90,0.0,0.0,48,0.00,,,0.00,meteohub,2013-04-23 08:10:00,
2013-04-23 04:15:00,40.3,22.5,30.34,East,90,0.0,0.0,48,0.00,,,0.00,meteohub,2013-04-23 08:15:00,
2013-04-23 04:20:00,39.9,22.1,30.34,East,90,0.0,0.0,48,0.00,,,0.00,meteohub,2013-04-23 08:20:00,
2013-04-23 04:25:00,39.6,21.9,30.34,East,90,0.0,0.0,48,0.00,,,0.00,meteohub,2013-04-23 08:25:00,
2013-04-23 04:30:00,39.4,21.7,30.34,East,90,0.0,0.0,48,0.00,,,0.00,meteohub,2013-04-23 08:30:00,
2013-04-23 04:35:00,39.4,21.7,30.34,East,90,0.0,0.0,48,0.00,,,0.00,meteohub,2013-04-23 08:35:00,
2013-04-23 04:40:00,39.2,21.6,30.34,East,90,0.0,0.0,48,0.00,,,0.00,meteohub,2013-04-23 08:40:00,
2013-04-23 04:45:00,39.2,21.9,30.34,East,90,0.0,0.0,49,0.00,,,0.00,meteohub,2013-04-23 08:45:00,
2013-04-23 04:50:00,39.0,21.7,30.34,East,90,0.0,0.0,49,0.00,,,0.00,meteohub,2013-04-23 08:50:00,
2013-04-23 04:56:00,39.0,21.7,30.35,East,90,0.0,0.0,49,0.00,,,0.00,meteohub,2013-04-23 08:56:00,
2013-04-23 05:01:00,38.8,21.7,30.34,East,90,0.0,0.0,49,0.00,,,0.00,meteohub,2013-04-23 09:01:00,
2013-04-23 05:06:00,38.8,21.7,30.34,East,90,0.0,0.0,49,0.00,,,0.00,meteohub,2013-04-23 09:06:00,
2013-04-23 05:11:00,38.7,21.6,30.34,East,90,0.0,0.0,49,0.00,,,0.00,meteohub,2013-04-23 09:11:00,
2013-04-23 05:16:00,38.5,21.4,30.35,East,90,0.0,0.0,49,0.00,,,0.00,meteohub,2013-04-23 09:16:00,
2013-04-23 05:21:00,38.3,21.2,30.35,East,90,0.0,0.0,49,0.00,,,0.00,meteohub,2013-04-23 09:21:00,
2013-04-23 05:26:00,38.1,21.0,30.35,East,90,0.0,0.0,49,0.00,,,0.00,meteohub,2013-04-23 09:26:00,
2013-04-23 05:31:00,38.1,21.0,30.35,East,90,0.0,0.0,49,0.00,,,0.00,meteohub,2013-04-23 09:31:00,
2013-04-23 05:36:00,38.1,21.0,30.35,East,90,0.0,0.0,49,0.00,,,0.00,meteohub,2013-04-23 09:36:00,
2013-04-23 05:41:00,37.9,20.8,30.35,East,90,0.0,0.0,49,0.00,,,0.00,meteohub,2013-04-23 09:41:00,
2013-04-23 05:46:00,37.9,20.8,30.35,East,90,0.0,0.0,49,0.00,,,0.00,meteohub,2013-04-23 09:46:00,
2013-04-23 05:51:00,37.9,20.8,30.35,East,90,0.0,0.0,49,0.00,,,0.00,meteohub,2013-04-23 09:51:00,
2013-04-23 05:57:00,37.9,21.2,30.35,East,90,0.0,1.0,50,0.00,,,0.00,meteohub,2013-04-23 09:57:00,
2013-04-23 06:02:00,37.9,21.2,30.35,East,90,0.0,1.0,50,0.00,,,0.00,meteohub,2013-04-23 10:02:00,
2013-04-23 06:07:00,37.9,21.2,30.35,East,90,0.0,1.0,50,0.00,,,0.00,meteohub,2013-04-23 10:07:00,
2013-04-23 06:12:00,37.6,20.8,30.35,East,90,0.0,0.0,50,0.00,,,0.00,meteohub,2013-04-23 10:12:00,
2013-04-23 06:17:00,37.8,21.0,30.35,East,90,0.0,0.0,50,0.00,,,0.00,meteohub,2013-04-23 10:17:00,
2013-04-23 06:22:00,37.8,21.0,30.35,East,90,0.0,0.0,50,0.00,,,0.00,meteohub,2013-04-23 10:22:00,
2013-04-23 06:27:00,37.8,21.0,30.35,East,90,0.0,0.0,50,0.00,,,0.00,meteohub,2013-04-23 10:27:00,
2013-04-23 06:32:00,37.4,20.7,30.36,East,90,0.0,0.0,50,0.00,,,0.00,meteohub,2013-04-23 10:32:00,
2013-04-23 06:37:00,37.4,20.7,30.35,East,90,0.0,0.0,50,0.00,,,0.00,meteohub,2013-04-23 10:37:00,
2013-04-23 06:42:00,37.4,20.7,30.35,East,90,0.0,0.0,50,0.00,,,0.00,meteohub,2013-04-23 10:42:00,
2013-04-23 06:47:00,37.2,20.5,30.35,East,90,0.0,0.0,50,0.00,,,0.00,meteohub,2013-04-23 10:47:00,
2013-04-23 06:52:00,37.2,20.5,30.35,East,90,0.0,0.0,50,0.00,,,0.00,meteohub,2013-04-23 10:52:00,
2013-04-23 06:57:00,37.2,21.0,30.35,East,90,0.0,0.0,51,0.00,,,0.00,meteohub,2013-04-23 10:57:00,
2013-04-23 07:02:00,37.4,21.0,30.36,East,90,0.0,0.0,51,0.00,,,0.00,meteohub,2013-04-23 11:02:00,
2013-04-23 07:07:00,37.4,21.0,30.37,East,90,0.0,0.0,51,0.00,,,0.00,meteohub,2013-04-23 11:07:00,
2013-04-23 07:12:00,37.6,21.2,30.36,East,90,0.0,0.0,51,0.00,,,0.00,meteohub,2013-04-23 11:12:00,
2013-04-23 07:17:00,37.8,21.4,30.37,East,90,0.0,0.0,51,0.00,,,0.00,meteohub,2013-04-23 11:17:00,
2013-04-23 07:22:00,37.8,21.4,30.37,East,90,0.0,0.0,51,0.00,,,0.00,meteohub,2013-04-23 11:22:00,
2013-04-23 07:27:00,37.9,21.6,30.37,East,90,0.0,0.0,51,0.00,,,0.00,meteohub,2013-04-23 11:27:00,
2013-04-23 07:32:00,37.9,21.7,30.37,East,90,0.0,0.0,51,0.00,,,0.00,meteohub,2013-04-23 11:32:00,
2013-04-23 07:37:00,38.3,22.1,30.37,East,90,0.0,0.0,51,0.00,,,0.00,meteohub,2013-04-23 11:37:00,
2013-04-23 07:42:00,38.7,22.5,30.37,East,90,0.0,2.0,51,0.00,,,0.00,meteohub,2013-04-23 11:42:00,
2013-04-23 07:47:00,39.2,23.0,30.37,East,90,0.0,2.0,51,0.00,,,0.00,meteohub,2013-04-23 11:47:00,
2013-04-23 07:52:00,41.0,25.0,30.37,East,90,0.0,2.0,52,0.00,,,0.00,meteohub,2013-04-23 11:52:00,
2013-04-23 07:57:00,41.9,26.2,30.37,East,90,0.0,2.0,53,0.00,,,0.00,meteohub,2013-04-23 11:57:00,
2013-04-23 08:02:00,42.4,26.2,30.37,East,90,2.0,2.0,52,0.00,,,0.00,meteohub,2013-04-23 12:02:00,
2013-04-23 08:07:00,42.4,26.2,30.37,East,90,2.0,2.0,52,0.00,,,0.00,meteohub,2013-04-23 12:07:00,
2013-04-23 08:12:00,44.1,24.4,30.36,East,90,2.0,2.0,45,0.00,,,0.00,meteohub,2013-04-23 12:12:00,
2013-04-23 08:17:00,44.2,23.0,30.36,East,90,2.0,2.0,42,0.00,,,0.00,meteohub,2013-04-23 12:17:00,
2013-04-23 08:22:00,44.4,22.5,30.36,East,90,3.0,3.0,41,0.00,,,0.00,meteohub,2013-04-23 12:22:00,
2013-04-23 08:27:00,45.9,22.1,30.35,East,90,2.0,3.0,38,0.00,,,0.00,meteohub,2013-04-23 12:27:00,
2013-04-23 08:32:00,47.3,19.9,30.35,East,90,4.0,4.0,33,0.00,,,0.00,meteohub,2013-04-23 12:32:00,
2013-04-23 08:37:00,48.4,20.1,30.36,East,90,2.0,4.0,32,0.00,,,0.00,meteohub,2013-04-23 12:37:00,
2013-04-23 08:42:00,48.7,17.4,30.35,East,90,2.0,4.0,28,0.00,,,0.00,meteohub,2013-04-23 12:42:00,
2013-04-23 08:47:00,49.5,15.4,30.35,East,90,2.0,4.0,25,0.00,,,0.00,meteohub,2013-04-23 12:47:00,
2013-04-23 08:52:00,50.4,15.4,30.35,NE,45,3.0,3.0,24,0.00,,,0.00,meteohub,2013-04-23 12:52:00,
2013-04-23 08:57:00,51.4,12.4,30.35,NE,45,4.0,4.0,20,0.00,,,0.00,meteohub,2013-04-23 12:57:00,
2013-04-23 09:02:00,52.0,4.8,30.35,NE,45,4.0,4.0,14,0.00,,,0.00,meteohub,2013-04-23 13:02:00,
2013-04-23 09:07:00,52.2,5.0,30.34,NE,45,2.0,6.0,14,0.00,,,0.00,meteohub,2013-04-23 13:07:00,
2013-04-23 09:12:00,52.5,5.4,30.35,East,90,4.0,6.0,14,0.00,,,0.00,meteohub,2013-04-23 13:12:00,
2013-04-23 09:17:00,53.2,5.9,30.35,NE,45,3.0,6.0,14,0.00,,,0.00,meteohub,2013-04-23 13:17:00,
2013-04-23 09:22:00,55.2,5.9,30.34,NE,45,4.0,5.0,13,0.00,,,0.00,meteohub,2013-04-23 13:22:00,
2013-04-23 09:27:00,54.3,54.3,30.34,East,90,6.0,8.0,0,0.00,,,0.00,meteohub,2013-04-23 13:27:00,
2013-04-23 09:32:00,54.7,54.7,30.34,NE,45,2.0,8.0,0,0.00,,,0.00,meteohub,2013-04-23 13:32:00,
2013-04-23 09:37:00,55.6,55.6,30.34,East,90,2.0,8.0,0,0.00,,,0.00,meteohub,2013-04-23 13:37:00,
2013-04-23 09:42:00,56.3,56.3,30.34,NE,45,9.0,9.0,0,0.00,,,0.00,meteohub,2013-04-23 13:42:00,
2013-04-23 09:48:00,57.6,57.6,30.33,East,90,8.0,10.0,0,0.00,,,0.00,meteohub,2013-04-23 13:48:00,
2013-04-23 09:53:00,58.6,58.6,30.33,North,0,2.0,10.0,0,0.00,,,0.00,meteohub,2013-04-23 13:53:00,
2013-04-23 09:58:00,59.2,59.2,30.33,NW,315,5.0,9.0,0,0.00,,,0.00,meteohub,2013-04-23 13:58:00,
2013-04-23 10:03:00,59.4,59.4,30.32,NE,45,3.0,8.0,0,0.00,,,0.00,meteohub,2013-04-23 14:03:00,
2013-04-23 10:08:00,60.6,60.6,30.33,NE,45,6.0,8.0,0,0.00,,,0.00,meteohub,2013-04-23 14:08:00,
2013-04-23 10:13:00,61.5,61.5,30.32,East,90,4.0,8.0,0,0.00,,,0.00,meteohub,2013-04-23 14:13:00,
2013-04-23 10:18:00,61.9,61.9,30.32,NE,45,7.0,8.0,0,0.00,,,0.00,meteohub,2013-04-23 14:18:00,
2013-04-23 10:23:00,61.9,61.9,30.32,NE,45,7.0,8.0,0,0.00,,,0.00,meteohub,2013-04-23 14:23:00,
2013-04-23 10:28:00,62.1,62.1,30.32,SE,135,7.0,10.0,0,0.00,,,0.00,meteohub,2013-04-23 14:28:00,
2013-04-23 10:33:00,62.1,62.1,30.32,NE,45,10.0,10.0,0,0.00,,,0.00,meteohub,2013-04-23 14:33:00,
2013-04-23 10:38:00,62.6,62.6,30.32,NE,45,6.0,10.0,0,0.00,,,0.00,meteohub,2013-04-23 14:38:00,
2013-04-23 10:44:00,62.4,62.4,30.33,NE,45,5.0,10.0,0,0.00,,,0.00,meteohub,2013-04-23 14:44:00,
2013-04-23 10:49:00,63.0,63.0,30.33,NE,45,6.0,10.0,0,0.00,,,0.00,meteohub,2013-04-23 14:49:00,
2013-04-23 10:54:00,63.3,63.3,30.32,ENE,68,4.0,8.0,0,0.00,,,0.00,meteohub,2013-04-23 14:54:00,
2013-04-23 10:59:00,63.5,63.5,30.32,North,0,4.0,8.0,0,0.00,,,0.00,meteohub,2013-04-23 14:59:00,
2013-04-23 11:04:00,63.5,63.5,30.32,NE,45,4.0,7.0,0,0.00,,,0.00,meteohub,2013-04-23 15:04:00,
2013-04-23 11:09:00,64.8,64.8,30.32,NE,45,3.0,8.0,0,0.00,,,0.00,meteohub,2013-04-23 15:09:00,
2013-04-23 11:14:00,64.8,64.8,30.32,East,90,8.0,8.0,0,0.00,,,0.00,meteohub,2013-04-23 15:14:00,
2013-04-23 11:19:00,65.5,65.5,30.32,SW,225,6.0,9.0,0,0.00,,,0.00,meteohub,2013-04-23 15:19:00,
2013-04-23 11:24:00,65.7,65.7,30.32,East,90,4.0,9.0,0,0.00,,,0.00,meteohub,2013-04-23 15:24:00,
2013-04-23 11:29:00,66.7,66.7,30.31,NE,45,5.0,9.0,0,0.00,,,0.00,meteohub,2013-04-23 15:29:00,
2013-04-23 11:34:00,66.4,66.4,30.31,East,90,7.0,8.0,0,0.00,,,0.00,meteohub,2013-04-23 15:34:00,
2013-04-23 11:40:00,66.0,66.0,30.31,East,90,11.0,11.0,0,0.00,,,0.00,meteohub,2013-04-23 15:40:00,
2013-04-23 11:45:00,65.5,65.5,30.31,East,90,2.0,8.0,0,0.00,,,0.00,meteohub,2013-04-23 15:45:00,
2013-04-23 11:50:00,67.3,67.3,30.30,East,90,6.0,11.0,0,0.00,,,0.00,meteohub,2013-04-23 15:50:00,
2013-04-23 11:55:00,67.1,67.1,30.30,East,90,4.0,11.0,0,0.00,,,0.00,meteohub,2013-04-23 15:55:00,
2013-04-23 12:00:00,66.7,66.7,30.30,East,90,4.0,11.0,0,0.00,,,0.00,meteohub,2013-04-23 16:00:00,
2013-04-23 12:05:00,66.7,66.7,30.30,East,90,4.0,8.0,0,0.00,,,0.00,meteohub,2013-04-23 16:05:00,
2013-04-23 12:10:00,67.6,67.6,30.30,ENE,68,8.0,8.0,0,0.00,,,0.00,meteohub,2013-04-23 16:10:00,
2013-04-23 12:15:00,68.0,68.0,30.29,NE,45,5.0,8.0,0,0.00,,,0.00,meteohub,2013-04-23 16:15:00,
2013-04-23 12:20:00,68.4,68.4,30.28,NE,45,4.0,8.0,0,0.00,,,0.00,meteohub,2013-04-23 16:20:00,
2013-04-23 12:25:00,67.5,67.5,30.28,SE,135,8.0,12.0,0,0.00,,,0.00,meteohub,2013-04-23 16:25:00,
2013-04-23 12:30:00,68.2,68.2,30.28,NW,315,2.0,12.0,0,0.00,,,0.00,meteohub,2013-04-23 16:30:00,
2013-04-23 12:36:00,68.7,68.7,30.27,NW,315,5.0,12.0,0,0.00,,,0.00,meteohub,2013-04-23 16:36:00,
2013-04-23 12:41:00,69.4,69.4,30.27,East,90,4.0,8.0,0,0.00,,,0.00,meteohub,2013-04-23 16:41:00,
2013-04-23 12:46:00,70.3,70.3,30.27,East,90,4.0,6.0,0,0.00,,,0.00,meteohub,2013-04-23 16:46:00,
2013-04-23 12:51:00,69.6,69.6,30.26,East,90,11.0,11.0,0,0.00,,,0.00,meteohub,2013-04-23 16:51:00,
2013-04-23 12:56:00,68.9,68.9,30.26,North,0,5.0,11.0,0,0.00,,,0.00,meteohub,2013-04-23 16:56:00,
2013-04-23 13:01:00,68.9,68.9,30.26,NE,45,6.0,11.0,0,0.00,,,0.00,meteohub,2013-04-23 17:01:00,
2013-04-23 13:06:00,68.9,68.9,30.26,NE,45,6.0,11.0,0,0.00,,,0.00,meteohub,2013-04-23 17:06:00,
2013-04-23 13:11:00,70.7,70.7,30.25,NE,45,6.0,7.0,0,0.00,,,0.00,meteohub,2013-04-23 17:11:00,
2013-04-23 13:16:00,70.7,70.7,30.24,North,0,4.0,8.0,0,0.00,,,0.00,meteohub,2013-04-23 17:16:00,
2013-04-23 13:21:00,71.4,71.4,30.25,East,90,4.0,8.0,0,0.00,,,0.00,meteohub,2013-04-23 17:21:00,
2013-04-23 13:26:00,71.2,71.2,30.24,NE,45,4.0,8.0,0,0.00,,,0.00,meteohub,2013-04-23 17:26:00,
2013-04-23 13:31:00,71.4,71.4,30.25,NW,315,3.0,8.0,0,0.00,,,0.00,meteohub,2013-04-23 17:31:00,
2013-04-23 13:36:00,71.2,71.2,30.24,NW,315,2.0,8.0,0,0.00,,,0.00,meteohub,2013-04-23 17:36:00,
2013-04-23 13:41:00,71.2,71.2,30.24,SE,135,7.0,8.0,0,0.00,,,0.00,meteohub,2013-04-23 17:41:00,
2013-04-23 13:47:00,71.4,71.4,30.25,SE,135,4.0,8.0,0,0.00,,,0.00,meteohub,2013-04-23 17:47:00,
2013-04-23 13:52:00,71.1,71.1,30.24,NW,315,3.0,8.0,0,0.00,,,0.00,meteohub,2013-04-23 17:52:00,
2013-04-23 13:57:00,71.6,71.6,30.23,West,270,4.0,8.0,0,0.00,,,0.00,meteohub,2013-04-23 17:57:00,
2013-04-23 14:02:00,72.0,72.0,30.23,East,90,4.0,4.0,0,0.00,,,0.00,meteohub,2013-04-23 18:02:00,
2013-04-23 14:07:00,72.0,72.0,30.22,East,90,4.0,6.0,0,0.00,,,0.00,meteohub,2013-04-23 18:07:00,
2013-04-23 14:12:00,71.2,71.2,30.23,SE,135,4.0,6.0,0,0.00,,,0.00,meteohub,2013-04-23 18:12:00,
2013-04-23 14:17:00,71.1,71.1,30.22,East,90,4.0,4.0,0,0.00,,,0.00,meteohub,2013-04-23 18:17:00,
2013-04-23 14:22:00,71.1,71.1,30.22,East,90,4.0,6.0,0,0.00,,,0.00,meteohub,2013-04-23 18:22:00,
2013-04-23 14:27:00,71.8,71.8,30.22,East,90,3.0,6.0,0,0.00,,,0.00,meteohub,2013-04-23 18:27:00,
2013-04-23 14:32:00,71.2,71.2,30.22,NW,315,4.0,6.0,0,0.00,,,0.00,meteohub,2013-04-23 18:32:00,
2013-04-23 14:37:00,71.4,71.4,30.21,NE,45,2.0,7.0,0,0.00,,,0.00,meteohub,2013-04-23 18:37:00,
2013-04-23 14:42:00,72.1,72.1,30.21,SE,135,2.0,7.0,0,0.00,,,0.00,meteohub,2013-04-23 18:42:00,
2013-04-23 14:47:00,72.5,72.5,30.21,West,270,2.0,6.0,0,0.00,,,0.00,meteohub,2013-04-23 18:47:00,
2013-04-23 14:52:00,72.5,72.5,30.21,SE,135,7.0,9.0,0,0.00,,,0.00,meteohub,2013-04-23 18:52:00,
2013-04-23 14:58:00,72.3,72.3,30.21,South,180,2.0,9.0,0,0.00,,,0.00,meteohub,2013-04-23 18:58:00,
2013-04-23 15:02:00,72.3,72.3,30.20,East,90,2.0,9.0,0,0.00,,,0.00,meteohub,2013-04-23 19:02:00,
2013-04-23 15:08:00,72.0,72.0,30.20,East,90,5.0,7.0,0,0.00,,,0.00,meteohub,2013-04-23 19:08:00,
2013-04-23 15:13:00,72.1,72.1,30.19,East,90,2.0,6.0,0,0.00,,,0.00,meteohub,2013-04-23 19:13:00,
2013-04-23 15:18:00,73.4,73.4,30.19,West,270,2.0,5.0,0,0.00,,,0.00,meteohub,2013-04-23 19:18:00,
2013-04-23 15:23:00,74.1,74.1,30.19,East,90,3.0,5.0,0,0.00,,,0.00,meteohub,2013-04-23 19:23:00,
2013-04-23 15:28:00,73.4,73.4,30.19,East,90,4.0,5.0,0,0.00,,,0.00,meteohub,2013-04-23 19:28:00,
2013-04-23 15:33:00,73.0,73.0,30.19,West,270,4.0,7.0,0,0.00,,,0.00,meteohub,2013-04-23 19:33:00,
2013-04-23 15:38:00,73.2,73.2,30.18,North,0,8.0,8.0,0,0.00,,,0.00,meteohub,2013-04-23 19:38:00,
2013-04-23 15:43:00,73.0,73.0,30.19,SE,135,4.0,8.0,0,0.00,,,0.00,meteohub,2013-04-23 19:43:00,
2013-04-23 15:48:00,74.3,74.3,30.18,East,90,1.0,8.0,0,0.00,,,0.00,meteohub,2013-04-23 19:48:00,
2013-04-23 15:53:00,74.8,74.8,30.18,WSW,248,3.0,8.0,0,0.00,,,0.00,meteohub,2013-04-23 19:53:00,
2013-04-23 15:58:00,74.7,74.7,30.18,NE,45,2.0,8.0,0,0.00,,,0.00,meteohub,2013-04-23 19:58:00,
2013-04-23 16:04:00,74.8,74.8,30.18,East,90,3.0,6.0,0,0.00,,,0.00,meteohub,2013-04-23 20:04:00,
2013-04-23 16:09:00,75.2,75.2,30.17,SW,225,2.0,6.0,0,0.00,,,0.00,meteohub,2013-04-23 20:09:00,
2013-04-23 16:14:00,76.1,76.1,30.17,NW,315,1.0,6.0,0,0.00,,,0.00,meteohub,2013-04-23 20:14:00,
2013-04-23 16:19:00,76.8,76.8,30.16,West,270,2.0,4.0,0,0.00,,,0.00,meteohub,2013-04-23 20:19:00,
2013-04-23 16:24:00,76.3,76.3,30.17,East,90,4.0,4.0,0,0.00,,,0.00,meteohub,2013-04-23 20:24:00,
2013-04-23 16:29:00,74.7,74.7,30.16,NE,45,4.0,5.0,0,0.00,,,0.00,meteohub,2013-04-23 20:29:00,
2013-04-23 16:34:00,73.6,73.6,30.17,East,90,8.0,8.0,0,0.00,,,0.00,meteohub,2013-04-23 20:34:00,
2013-04-23 16:39:00,73.2,73.2,30.17,East,90,4.0,6.0,0,0.00,,,0.00,meteohub,2013-04-23 20:39:00,
2013-04-23 16:44:00,73.4,73.4,30.17,East,90,3.0,8.0,0,0.00,,,0.00,meteohub,2013-04-23 20:44:00,
2013-04-23 16:49:00,73.6,73.6,30.16,West,270,4.0,8.0,0,0.00,,,0.00,meteohub,2013-04-23 20:49:00,
2013-04-23 16:54:00,73.9,73.9,30.16,SW,225,4.0,6.0,0,0.00,,,0.00,meteohub,2013-04-23 20:54:00,
2013-04-23 16:59:00,74.5,74.5,30.15,West,270,2.0,4.0,0,0.00,,,0.00,meteohub,2013-04-23 20:59:00,
2013-04-23 17:04:00,74.5,74.5,30.15,West,270,2.0,4.0,0,0.00,,,0.00,meteohub,2013-04-23 21:04:00,
2013-04-23 17:10:00,75.6,75.6,30.15,West,270,4.0,4.0,0,0.00,,,0.00,meteohub,2013-04-23 21:10:00,
2013-04-23 17:15:00,76.8,76.8,30.14,East,90,4.0,4.0,0,0.00,,,0.00,meteohub,2013-04-23 21:15:00,
2013-04-23 17:20:00,75.2,75.2,30.15,East,90,4.0,4.0,0,0.00,,,0.00,meteohub,2013-04-23 21:20:00,
2013-04-23 17:25:00,74.8,74.8,30.14,SW,225,3.0,8.0,0,0.00,,,0.00,meteohub,2013-04-23 21:25:00,
2013-04-23 17:30:00,75.2,75.2,30.14,East,90,4.0,8.0,0,0.00,,,0.00,meteohub,2013-04-23 21:30:00,
2013-04-23 17:35:00,76.3,76.3,30.14,East,90,2.0,8.0,0,0.00,,,0.00,meteohub,2013-04-23 21:35:00,
2013-04-23 17:40:00,76.5,76.5,30.14,North,0,2.0,4.0,0,0.00,,,0.00,meteohub,2013-04-23 21:40:00,
2013-04-23 17:45:00,75.7,75.7,30.14,East,90,6.0,6.0,0,0.00,,,0.00,meteohub,2013-04-23 21:45:00,
2013-04-23 17:50:00,74.8,74.8,30.14,East,90,2.0,6.0,0,0.00,,,0.00,meteohub,2013-04-23 21:50:00,
2013-04-23 17:55:00,74.3,74.3,30.14,West,270,2.0,6.0,0,0.00,,,0.00,meteohub,2013-04-23 21:55:00,
2013-04-23 18:00:00,73.8,73.8,30.14,SW,225,4.0,6.0,0,0.00,,,0.00,meteohub,2013-04-23 22:00:00,
2013-04-23 18:05:00,73.8,73.8,30.14,SW,225,4.0,5.0,0,0.00,,,0.00,meteohub,2013-04-23 22:05:00,
2013-04-23 18:10:00,72.9,72.9,30.15,East,90,4.0,5.0,0,0.00,,,0.00,meteohub,2013-04-23 22:10:00,
2013-04-23 18:15:00,72.5,72.5,30.15,SE,135,4.0,5.0,0,0.00,,,0.00,meteohub,2013-04-23 22:15:00,
2013-04-23 18:21:00,72.3,72.3,30.14,East,90,2.0,5.0,0,0.00,,,0.00,meteohub,2013-04-23 22:21:00,
2013-04-23 18:26:00,72.5,72.5,30.14,SW,225,4.0,4.0,0,0.00,,,0.00,meteohub,2013-04-23 22:26:00,
2013-04-23 18:31:00,72.5,72.5,30.14,East,90,2.0,4.0,0,0.00,,,0.00,meteohub,2013-04-23 22:31:00,
2013-04-23 18:36:00,72.1,72.1,30.14,SE,135,4.0,4.0,0,0.00,,,0.00,meteohub,2013-04-23 22:36:00,
2013-04-23 18:41:00,72.0,72.0,30.14,NNE,23,3.0,8.0,0,0.00,,,0.00,meteohub,2013-04-23 22:41:00,
2013-04-23 18:46:00,71.6,71.6,30.14,West,270,2.0,8.0,0,0.00,,,0.00,meteohub,2013-04-23 22:46:00,
2013-04-23 18:51:00,71.4,71.4,30.14,West,270,0.0,5.0,0,0.00,,,0.00,meteohub,2013-04-23 22:51:00,
2013-04-23 18:56:00,71.6,71.6,30.14,East,90,0.0,4.0,0,0.00,,,0.00,meteohub,2013-04-23 22:56:00,
2013-04-23 19:01:00,71.1,71.1,30.14,SE,135,2.0,4.0,0,0.00,,,0.00,meteohub,2013-04-23 23:01:00,
2013-04-23 19:06:00,70.9,70.9,30.14,East,90,1.0,4.0,0,0.00,,,0.00,meteohub,2013-04-23 23:06:00,
2013-04-23 19:11:00,70.3,70.3,30.14,NE,45,2.0,4.0,0,0.00,,,0.00,meteohub,2013-04-23 23:11:00,
2013-04-23 19:16:00,70.2,70.2,30.14,SW,225,1.0,5.0,0,0.00,,,0.00,meteohub,2013-04-23 23:16:00,
2013-04-23 19:22:00,70.0,70.0,30.14,NE,45,1.0,5.0,0,0.00,,,0.00,meteohub,2013-04-23 23:22:00,
2013-04-23 19:27:00,69.6,69.6,30.14,East,90,2.0,5.0,0,0.00,,,0.00,meteohub,2013-04-23 23:27:00,
2013-04-23 19:32:00,69.3,69.3,30.14,East,90,2.0,3.0,0,0.00,,,0.00,meteohub,2013-04-23 23:32:00,
2013-04-23 19:37:00,68.7,68.7,30.14,East,90,4.0,4.0,0,0.00,,,0.00,meteohub,2013-04-23 23:37:00,
2013-04-23 19:42:00,68.4,68.4,30.15,East,90,2.0,4.0,0,0.00,,,0.00,meteohub,2013-04-23 23:42:00,
2013-04-23 19:47:00,67.5,67.5,30.15,East,90,0.0,4.0,0,0.00,,,0.00,meteohub,2013-04-23 23:47:00,
2013-04-23 19:52:00,66.4,66.4,30.15,East,90,2.0,4.0,0,0.00,,,0.00,meteohub,2013-04-23 23:52:00,
2013-04-23 19:57:00,65.5,65.5,30.15,East,90,0.0,2.0,0,0.00,,,0.00,meteohub,2013-04-23 23:57:00,
2013-04-23 20:02:00,64.6,64.6,30.16,East,90,0.0,2.0,0,0.00,,,0.00,meteohub,2013-04-24 00:02:00,
2013-04-23 20:07:00,64.0,64.0,30.17,East,90,0.0,2.0,0,0.00,,,0.00,meteohub,2013-04-24 00:07:00,
2013-04-23 20:12:00,63.1,6.4,30.16,East,90,0.0,0.0,10,0.00,,,0.00,meteohub,2013-04-24 00:12:00,
2013-04-23 20:17:00,62.6,8.1,30.17,East,90,0.0,0.0,11,0.00,,,0.00,meteohub,2013-04-24 00:17:00,
2013-04-23 20:22:00,61.9,12.9,30.17,East,90,0.0,0.0,14,0.00,,,0.00,meteohub,2013-04-24 00:22:00,
2013-04-23 20:27:00,61.3,16.5,30.17,East,90,0.0,0.0,17,0.00,,,0.00,meteohub,2013-04-24 00:27:00,
2013-04-23 20:32:00,60.8,17.4,30.17,East,90,0.0,0.0,18,0.00,,,0.00,meteohub,2013-04-24 00:32:00,
2013-04-23 20:37:00,60.3,18.3,30.18,East,90,0.0,0.0,19,0.00,,,0.00,meteohub,2013-04-24 00:37:00,
2013-04-23 20:42:00,59.5,22.1,30.18,East,90,0.0,0.0,23,0.00,,,0.00,meteohub,2013-04-24 00:42:00,
2013-04-23 20:47:00,59.2,21.9,30.19,East,90,0.0,0.0,23,0.00,,,0.00,meteohub,2013-04-24 00:47:00,
2013-04-23 20:52:00,58.6,22.5,30.19,East,90,0.0,0.0,24,0.00,,,0.00,meteohub,2013-04-24 00:52:00,
2013-04-23 20:57:00,58.1,23.0,30.19,East,90,0.0,0.0,25,0.00,,,0.00,meteohub,2013-04-24 00:57:00,
2013-04-23 21:02:00,57.9,22.8,30.19,East,90,0.0,0.0,25,0.00,,,0.00,meteohub,2013-04-24 01:02:00,
2013-04-23 21:07:00,57.9,22.8,30.20,East,90,0.0,0.0,25,0.00,,,0.00,meteohub,2013-04-24 01:07:00,
2013-04-23 21:12:00,56.7,25.2,30.20,East,90,0.0,0.0,29,0.00,,,0.00,meteohub,2013-04-24 01:12:00,
2013-04-23 21:17:00,56.3,25.7,30.21,East,90,0.0,0.0,30,0.00,,,0.00,meteohub,2013-04-24 01:17:00,
2013-04-23 21:22:00,55.9,26.1,30.21,East,90,0.0,0.0,31,0.00,,,0.00,meteohub,2013-04-24 01:22:00,
2013-04-23 21:28:00,55.6,26.4,30.21,East,90,0.0,0.0,32,0.00,,,0.00,meteohub,2013-04-24 01:28:00,
2013-04-23 21:33:00,55.2,26.2,30.21,East,90,0.0,0.0,32,0.00,,,0.00,meteohub,2013-04-24 01:33:00,
2013-04-23 21:38:00,54.9,26.1,30.22,East,90,0.0,0.0,32,0.00,,,0.00,meteohub,2013-04-24 01:38:00,
2013-04-23 21:43:00,54.5,26.2,30.22,East,90,0.0,0.0,33,0.00,,,0.00,meteohub,2013-04-24 01:43:00,
2013-04-23 21:48:00,54.1,26.1,30.22,East,90,0.0,0.0,33,0.00,,,0.00,meteohub,2013-04-24 01:48:00,
2013-04-23 21:53:00,53.8,27.1,30.22,East,90,0.0,0.0,35,0.00,,,0.00,meteohub,2013-04-24 01:53:00,
2013-04-23 21:58:00,53.4,26.8,30.22,East,90,0.0,0.0,35,0.00,,,0.00,meteohub,2013-04-24 01:58:00,
2013-04-23 22:03:00,53.4,27.5,30.23,East,90,0.0,0.0,36,0.00,,,0.00,meteohub,2013-04-24 02:03:00,
2013-04-23 22:08:00,53.1,27.9,30.23,East,90,0.0,0.0,37,0.00,,,0.00,meteohub,2013-04-24 02:08:00,
2013-04-23 22:14:00,52.9,28.2,30.23,East,90,0.0,0.0,38,0.00,,,0.00,meteohub,2013-04-24 02:14:00,
2013-04-23 22:20:00,52.5,28.0,30.23,East,90,0.0,0.0,38,0.00,,,0.00,meteohub,2013-04-24 02:20:00,
2013-04-23 22:25:00,52.2,27.7,30.23,East,90,0.0,0.0,38,0.00,,,0.00,meteohub,2013-04-24 02:25:00,
2013-04-23 22:30:00,52.0,28.0,30.23,East,90,0.0,0.0,39,0.00,,,0.00,meteohub,2013-04-24 02:30:00,
2013-04-23 22:35:00,51.6,27.9,30.23,East,90,0.0,0.0,39,0.00,,,0.00,meteohub,2013-04-24 02:35:00,
2013-04-23 22:40:00,51.4,28.2,30.23,East,90,0.0,0.0,40,0.00,,,0.00,meteohub,2013-04-24 02:40:00,
2013-04-23 22:45:00,51.3,28.8,30.23,East,90,0.0,0.0,41,0.00,,,0.00,meteohub,2013-04-24 02:45:00,
2013-04-23 22:50:00,51.1,28.6,30.24,East,90,0.0,0.0,41,0.00,,,0.00,meteohub,2013-04-24 02:50:00,
2013-04-23 22:55:00,50.9,28.4,30.24,East,90,0.0,0.0,41,0.00,,,0.00,meteohub,2013-04-24 02:55:00,
2013-04-23 23:00:00,50.7,28.8,30.24,East,90,0.0,0.0,42,0.00,,,0.00,meteohub,2013-04-24 03:00:00,
2013-04-23 23:06:00,50.7,28.8,30.24,East,90,0.0,0.0,42,0.00,,,0.00,meteohub,2013-04-24 03:06:00,
2013-04-23 23:11:00,50.4,29.1,30.25,East,90,0.0,0.0,43,0.00,,,0.00,meteohub,2013-04-24 03:11:00,
2013-04-23 23:16:00,50.2,28.9,30.24,East,90,0.0,0.0,43,0.00,,,0.00,meteohub,2013-04-24 03:16:00,
2013-04-23 23:21:00,50.0,28.8,30.24,East,90,0.0,0.0,43,0.00,,,0.00,meteohub,2013-04-24 03:21:00,
2013-04-23 23:27:00,49.8,29.1,30.24,East,90,0.0,0.0,44,0.00,,,0.00,meteohub,2013-04-24 03:27:00,
2013-04-23 23:32:00,49.8,29.1,30.24,East,90,0.0,0.0,44,0.00,,,0.00,meteohub,2013-04-24 03:32:00,
2013-04-23 23:37:00,49.6,29.5,30.25,East,90,0.0,0.0,45,0.00,,,0.00,meteohub,2013-04-24 03:37:00,
2013-04-23 23:42:00,49.6,29.3,30.24,East,90,0.0,0.0,45,0.00,,,0.00,meteohub,2013-04-24 03:42:00,
2013-04-23 23:47:00,49.5,29.1,30.24,East,90,0.0,0.0,45,0.00,,,0.00,meteohub,2013-04-24 03:47:00,
2013-04-23 23:52:00,49.3,28.9,30.24,East,90,0.0,0.0,45,0.00,,,0.00,meteohub,2013-04-24 03:52:00,
2013-04-23 23:57:00,49.1,28.8,30.24,East,90,0.0,0.0,45,0.00,,,0.00,meteohub,2013-04-24 03:57:00,